sensor_id;sensor_type;location;lat;lon;timestamp;pressure;altitude;pressure_sealevel;temperature;humidity
45323;BME280;31382;50.200;8.674;2023-04-08T00:02:16;100713.53;;;10.18;69.57
45323;BME280;31382;50.200;8.674;2023-04-08T00:07:18;100707.63;;;10.06;69.73
45323;BME280;31382;50.200;8.674;2023-04-08T00:12:19;100709.78;;;9.95;69.61
45323;BME280;31382;50.200;8.674;2023-04-08T00:17:21;100712.25;;;9.80;69.73
45323;BME280;31382;50.200;8.674;2023-04-08T00:22:22;100723.25;;;9.68;69.92
45323;BME280;31382;50.200;8.674;2023-04-08T00:27:24;100722.56;;;9.58;69.99
45323;BME280;31382;50.200;8.674;2023-04-08T00:32:26;100731.88;;;9.46;70.00
45323;BME280;31382;50.200;8.674;2023-04-08T00:37:28;100725.25;;;9.32;69.80
45323;BME280;31382;50.200;8.674;2023-04-08T00:42:30;100734.09;;;9.24;70.32
45323;BME280;31382;50.200;8.674;2023-04-08T00:47:31;100727.47;;;9.10;69.91
45323;BME280;31382;50.200;8.674;2023-04-08T00:52:32;100723.19;;;9.00;70.04
45323;BME280;31382;50.200;8.674;2023-04-08T00:57:34;100734.16;;;8.88;70.03
45323;BME280;31382;50.200;8.674;2023-04-08T01:07:48;100734.50;;;8.67;70.54
45323;BME280;31382;50.200;8.674;2023-04-08T01:13:08;100737.88;;;8.51;70.70
45323;BME280;31382;50.200;8.674;2023-04-08T01:18:13;100741.47;;;8.42;70.66
45323;BME280;31382;50.200;8.674;2023-04-08T01:24:18;100734.16;;;8.34;70.15
45323;BME280;31382;50.200;8.674;2023-04-08T01:29:00;100737.38;;;8.20;70.75
45323;BME280;31382;50.200;8.674;2023-04-08T01:34:04;100738.56;;;8.08;70.88
45323;BME280;31382;50.200;8.674;2023-04-08T01:39:06;100746.19;;;8.03;71.02
45323;BME280;31382;50.200;8.674;2023-04-08T01:44:10;100743.47;;;7.85;70.95
45323;BME280;31382;50.200;8.674;2023-04-08T01:49:12;100743.94;;;7.80;71.26
45323;BME280;31382;50.200;8.674;2023-04-08T01:54:14;100737.63;;;7.71;70.83
45323;BME280;31382;50.200;8.674;2023-04-08T01:59:18;100738.25;;;7.55;70.71
45323;BME280;31382;50.200;8.674;2023-04-08T02:04:21;100740.69;;;7.49;71.19
45323;BME280;31382;50.200;8.674;2023-04-08T02:09:24;100739.56;;;7.42;70.50
45323;BME280;31382;50.200;8.674;2023-04-08T02:14:25;100746.19;;;7.38;71.14
45323;BME280;31382;50.200;8.674;2023-04-08T02:19:40;100748.06;;;7.27;71.29
45323;BME280;31382;50.200;8.674;2023-04-08T02:24:45;100750.31;;;7.22;71.24
45323;BME280;31382;50.200;8.674;2023-04-08T02:29:48;100757.38;;;7.13;70.74
45323;BME280;31382;50.200;8.674;2023-04-08T02:34:51;100757.97;;;7.07;71.26
45323;BME280;31382;50.200;8.674;2023-04-08T02:39:52;100760.91;;;6.94;71.56
45323;BME280;31382;50.200;8.674;2023-04-08T02:44:55;100756.00;;;6.90;71.32
45323;BME280;31382;50.200;8.674;2023-04-08T02:49:57;100762.19;;;6.90;71.63
45323;BME280;31382;50.200;8.674;2023-04-08T02:54:58;100761.34;;;6.90;71.94
45323;BME280;31382;50.200;8.674;2023-04-08T02:59:59;100774.28;;;6.85;72.00
45323;BME280;31382;50.200;8.674;2023-04-08T03:05:01;100774.72;;;6.80;72.35
45323;BME280;31382;50.200;8.674;2023-04-08T03:10:03;100776.25;;;6.73;71.56
45323;BME280;31382;50.200;8.674;2023-04-08T03:15:06;100771.78;;;6.73;72.14
45323;BME280;31382;50.200;8.674;2023-04-08T03:20:08;100769.25;;;6.72;72.25
45323;BME280;31382;50.200;8.674;2023-04-08T03:25:10;100772.75;;;6.72;71.67
45323;BME280;31382;50.200;8.674;2023-04-08T03:30:12;100779.63;;;6.75;72.21
45323;BME280;31382;50.200;8.674;2023-04-08T03:35:13;100790.75;;;6.70;72.47
45323;BME280;31382;50.200;8.674;2023-04-08T03:40:15;100786.22;;;6.71;71.61
45323;BME280;31382;50.200;8.674;2023-04-08T03:45:16;100784.81;;;6.67;72.27
45323;BME280;31382;50.200;8.674;2023-04-08T03:50:18;100796.38;;;6.58;72.27
45323;BME280;31382;50.200;8.674;2023-04-08T03:55:19;100790.72;;;6.51;72.08
45323;BME280;31382;50.200;8.674;2023-04-08T04:00:21;100786.06;;;6.43;71.67
45323;BME280;31382;50.200;8.674;2023-04-08T04:05:22;100787.06;;;6.42;72.33
45323;BME280;31382;50.200;8.674;2023-04-08T04:10:23;100797.59;;;6.34;71.78
45323;BME280;31382;50.200;8.674;2023-04-08T04:15:25;100799.25;;;6.25;71.67
45323;BME280;31382;50.200;8.674;2023-04-08T04:20:26;100801.63;;;6.19;71.62
45323;BME280;31382;50.200;8.674;2023-04-08T04:25:30;100801.19;;;6.13;71.92
45323;BME280;31382;50.200;8.674;2023-04-08T04:30:31;100802.31;;;6.11;71.93
45323;BME280;31382;50.200;8.674;2023-04-08T04:35:33;100808.91;;;6.07;72.10
45323;BME280;31382;50.200;8.674;2023-04-08T04:40:35;100799.72;;;6.00;71.87
45323;BME280;31382;50.200;8.674;2023-04-08T04:45:37;100799.84;;;5.98;71.98
45323;BME280;31382;50.200;8.674;2023-04-08T04:50:38;100799.03;;;5.98;71.08
45323;BME280;31382;50.200;8.674;2023-04-08T04:55:40;100802.28;;;6.01;71.54
45323;BME280;31382;50.200;8.674;2023-04-08T05:00:41;100812.09;;;6.01;71.10
45323;BME280;31382;50.200;8.674;2023-04-08T05:05:42;100816.31;;;6.03;71.87
45323;BME280;31382;50.200;8.674;2023-04-08T05:10:44;100812.69;;;6.04;71.57
45323;BME280;31382;50.200;8.674;2023-04-08T05:15:46;100820.53;;;6.06;71.01
45323;BME280;31382;50.200;8.674;2023-04-08T05:20:47;100827.28;;;6.10;70.97
45323;BME280;31382;50.200;8.674;2023-04-08T05:25:48;100839.53;;;6.12;71.46
45323;BME280;31382;50.200;8.674;2023-04-08T05:30:51;100838.84;;;6.10;71.55
45323;BME280;31382;50.200;8.674;2023-04-08T05:35:52;100840.25;;;6.14;71.29
45323;BME280;31382;50.200;8.674;2023-04-08T05:40:54;100830.69;;;6.22;72.00
45323;BME280;31382;50.200;8.674;2023-04-08T05:45:55;100834.66;;;6.27;72.19
45323;BME280;31382;50.200;8.674;2023-04-08T05:50:57;100833.72;;;6.38;71.89
45323;BME280;31382;50.200;8.674;2023-04-08T05:55:58;100844.00;;;6.52;72.01
45323;BME280;31382;50.200;8.674;2023-04-08T06:00:59;100846.28;;;6.67;71.69
45323;BME280;31382;50.200;8.674;2023-04-08T06:06:01;100855.56;;;6.82;71.51
45323;BME280;31382;50.200;8.674;2023-04-08T06:11:02;100866.41;;;7.00;71.85
45323;BME280;31382;50.200;8.674;2023-04-08T06:16:09;100871.91;;;7.18;71.88
45323;BME280;31382;50.200;8.674;2023-04-08T06:21:11;100873.03;;;7.35;71.50
45323;BME280;31382;50.200;8.674;2023-04-08T06:26:12;100872.59;;;7.49;72.52
45323;BME280;31382;50.200;8.674;2023-04-08T06:36:31;100889.25;;;7.90;71.54
45323;BME280;31382;50.200;8.674;2023-04-08T06:41:39;100875.78;;;8.20;71.49
45323;BME280;31382;50.200;8.674;2023-04-08T06:46:43;100890.34;;;8.45;71.75
45323;BME280;31382;50.200;8.674;2023-04-08T06:51:44;100886.66;;;8.73;71.41
45323;BME280;31382;50.200;8.674;2023-04-08T06:56:48;100904.63;;;8.91;71.65
45323;BME280;31382;50.200;8.674;2023-04-08T07:01:49;100904.69;;;9.17;70.86
45323;BME280;31382;50.200;8.674;2023-04-08T07:06:51;100899.19;;;9.37;70.65
45323;BME280;31382;50.200;8.674;2023-04-08T07:11:53;100910.88;;;9.53;70.64
45323;BME280;31382;50.200;8.674;2023-04-08T07:16:54;100908.50;;;9.68;70.85
45323;BME280;31382;50.200;8.674;2023-04-08T07:21:56;100903.91;;;9.87;70.39
45323;BME280;31382;50.200;8.674;2023-04-08T07:26:58;100902.88;;;10.06;69.85
45323;BME280;31382;50.200;8.674;2023-04-08T07:31:59;100908.16;;;10.24;69.62
45323;BME280;31382;50.200;8.674;2023-04-08T07:37:01;100899.34;;;10.31;69.31
45323;BME280;31382;50.200;8.674;2023-04-08T07:42:02;100914.41;;;10.59;68.59
45323;BME280;31382;50.200;8.674;2023-04-08T07:47:04;100921.16;;;10.71;68.15
45323;BME280;31382;50.200;8.674;2023-04-08T07:52:05;100925.75;;;10.87;67.86
45323;BME280;31382;50.200;8.674;2023-04-08T07:57:07;100922.38;;;10.85;67.60
45323;BME280;31382;50.200;8.674;2023-04-08T08:02:08;100944.78;;;11.02;67.61
45323;BME280;31382;50.200;8.674;2023-04-08T08:07:10;100942.47;;;11.23;66.92
45323;BME280;31382;50.200;8.674;2023-04-08T08:12:11;100955.63;;;11.26;67.13
45323;BME280;31382;50.200;8.674;2023-04-08T08:17:12;100962.00;;;11.25;67.13
45323;BME280;31382;50.200;8.674;2023-04-08T08:22:14;100955.44;;;11.20;67.01
45323;BME280;31382;50.200;8.674;2023-04-08T08:27:16;100959.28;;;11.17;66.69
45323;BME280;31382;50.200;8.674;2023-04-08T08:32:17;100972.75;;;11.17;66.24
45323;BME280;31382;50.200;8.674;2023-04-08T08:37:19;100976.78;;;11.13;66.38
45323;BME280;31382;50.200;8.674;2023-04-08T08:42:24;100974.41;;;11.10;66.23
45323;BME280;31382;50.200;8.674;2023-04-08T08:47:26;100986.16;;;11.01;66.70
45323;BME280;31382;50.200;8.674;2023-04-08T09:03:29;100996.69;;;10.86;66.07
45323;BME280;31382;50.200;8.674;2023-04-08T09:08:33;100996.75;;;10.94;65.24
45323;BME280;31382;50.200;8.674;2023-04-08T09:13:35;101005.97;;;11.00;64.03
45323;BME280;31382;50.200;8.674;2023-04-08T09:18:40;100988.53;;;11.04;63.35
45323;BME280;31382;50.200;8.674;2023-04-08T09:23:49;100989.94;;;11.32;62.39
45323;BME280;31382;50.200;8.674;2023-04-08T09:29:10;100996.53;;;11.63;61.65
45323;BME280;31382;50.200;8.674;2023-04-08T09:34:29;101002.28;;;11.84;61.34
45323;BME280;31382;50.200;8.674;2023-04-08T09:39:32;100999.09;;;12.05;60.54
45323;BME280;31382;50.200;8.674;2023-04-08T09:44:36;101005.00;;;12.17;60.03
45323;BME280;31382;50.200;8.674;2023-04-08T09:49:49;101006.69;;;12.26;59.62
45323;BME280;31382;50.200;8.674;2023-04-08T09:54:56;101000.28;;;12.19;58.90
45323;BME280;31382;50.200;8.674;2023-04-08T10:10:34;101002.44;;;12.88;58.12
45323;BME280;31382;50.200;8.674;2023-04-08T10:15:37;101007.00;;;13.27;57.52
45323;BME280;31382;50.200;8.674;2023-04-08T10:20:41;101008.97;;;13.41;56.55
45323;BME280;31382;50.200;8.674;2023-04-08T10:25:44;101000.75;;;13.58;56.16
45323;BME280;31382;50.200;8.674;2023-04-08T10:30:47;100988.94;;;13.59;56.31
45323;BME280;31382;50.200;8.674;2023-04-08T10:35:52;100992.22;;;13.69;56.07
45323;BME280;31382;50.200;8.674;2023-04-08T10:40:54;100998.28;;;13.71;55.88
45323;BME280;31382;50.200;8.674;2023-04-08T10:45:55;100996.91;;;13.75;55.43
45323;BME280;31382;50.200;8.674;2023-04-08T10:51:04;100995.56;;;14.32;54.27
45323;BME280;31382;50.200;8.674;2023-04-08T10:56:11;100995.38;;;14.48;54.44
45323;BME280;31382;50.200;8.674;2023-04-08T11:01:18;101003.25;;;14.58;54.55
45323;BME280;31382;50.200;8.674;2023-04-08T11:06:19;101005.66;;;14.68;54.55
45323;BME280;31382;50.200;8.674;2023-04-08T11:11:21;100999.59;;;14.81;54.15
45323;BME280;31382;50.200;8.674;2023-04-08T11:16:25;100998.41;;;14.83;54.12
45323;BME280;31382;50.200;8.674;2023-04-08T11:21:28;101000.25;;;14.68;54.22
45323;BME280;31382;50.200;8.674;2023-04-08T11:26:30;100991.69;;;14.79;53.83
45323;BME280;31382;50.200;8.674;2023-04-08T11:31:32;100999.50;;;14.74;53.41
45323;BME280;31382;50.200;8.674;2023-04-08T11:36:34;100989.41;;;14.83;53.51
45323;BME280;31382;50.200;8.674;2023-04-08T11:41:37;100996.22;;;14.79;53.50
45323;BME280;31382;50.200;8.674;2023-04-08T11:46:39;100997.75;;;14.81;53.46
45323;BME280;31382;50.200;8.674;2023-04-08T11:51:58;100996.44;;;14.77;53.19
45323;BME280;31382;50.200;8.674;2023-04-08T11:57:00;101002.88;;;14.76;53.64
45323;BME280;31382;50.200;8.674;2023-04-08T12:02:03;100996.00;;;15.10;53.16
45323;BME280;31382;50.200;8.674;2023-04-08T12:07:05;100997.75;;;15.33;52.60
45323;BME280;31382;50.200;8.674;2023-04-08T12:12:06;101005.56;;;15.42;52.92
45323;BME280;31382;50.200;8.674;2023-04-08T12:17:07;100995.88;;;15.55;52.49
45323;BME280;31382;50.200;8.674;2023-04-08T12:22:09;100998.50;;;15.48;52.80
45323;BME280;31382;50.200;8.674;2023-04-08T12:27:10;101006.13;;;15.59;52.55
45323;BME280;31382;50.200;8.674;2023-04-08T12:32:11;101000.22;;;15.71;52.40
45323;BME280;31382;50.200;8.674;2023-04-08T12:37:13;100989.13;;;15.87;52.01
45323;BME280;31382;50.200;8.674;2023-04-08T12:42:15;100986.88;;;15.91;52.27
45323;BME280;31382;50.200;8.674;2023-04-08T12:47:16;100984.50;;;15.81;52.57
45323;BME280;31382;50.200;8.674;2023-04-08T12:52:18;100974.94;;;15.85;52.39
45323;BME280;31382;50.200;8.674;2023-04-08T12:57:19;100975.84;;;16.20;51.58
45323;BME280;31382;50.200;8.674;2023-04-08T13:02:21;100974.53;;;16.44;51.09
45323;BME280;31382;50.200;8.674;2023-04-08T13:07:23;100982.31;;;16.82;50.25
45323;BME280;31382;50.200;8.674;2023-04-08T13:12:24;100983.22;;;16.96;49.60
45323;BME280;31382;50.200;8.674;2023-04-08T13:17:26;100986.06;;;16.81;49.87
45323;BME280;31382;50.200;8.674;2023-04-08T13:22:28;100996.53;;;16.56;50.08
45323;BME280;31382;50.200;8.674;2023-04-08T13:27:29;100982.19;;;16.34;49.86
45323;BME280;31382;50.200;8.674;2023-04-08T13:32:30;100991.31;;;15.98;50.27
45323;BME280;31382;50.200;8.674;2023-04-08T13:37:32;100991.38;;;15.83;50.65
45323;BME280;31382;50.200;8.674;2023-04-08T13:42:33;100984.72;;;15.64;50.61
45323;BME280;31382;50.200;8.674;2023-04-08T13:47:35;100978.66;;;15.41;50.74
45323;BME280;31382;50.200;8.674;2023-04-08T13:52:38;100979.44;;;15.35;50.55
45323;BME280;31382;50.200;8.674;2023-04-08T13:57:39;100980.94;;;15.22;50.98
45323;BME280;31382;50.200;8.674;2023-04-08T14:02:41;100978.44;;;15.21;51.01
45323;BME280;31382;50.200;8.674;2023-04-08T14:07:42;100979.00;;;15.16;51.40
45323;BME280;31382;50.200;8.674;2023-04-08T14:12:44;100992.56;;;15.38;51.06
45323;BME280;31382;50.200;8.674;2023-04-08T14:17:46;100985.41;;;15.52;51.00
45323;BME280;31382;50.200;8.674;2023-04-08T14:22:48;100984.31;;;15.67;51.31
45323;BME280;31382;50.200;8.674;2023-04-08T14:27:50;100984.00;;;15.56;51.65
45323;BME280;31382;50.200;8.674;2023-04-08T14:32:59;100983.22;;;15.62;51.76
45323;BME280;31382;50.200;8.674;2023-04-08T14:38:01;100977.69;;;15.49;51.75
45323;BME280;31382;50.200;8.674;2023-04-08T14:43:02;100980.63;;;15.32;52.38
45323;BME280;31382;50.200;8.674;2023-04-08T14:48:04;100980.94;;;15.22;52.66
45323;BME280;31382;50.200;8.674;2023-04-08T14:53:06;100980.03;;;15.15;52.39
45323;BME280;31382;50.200;8.674;2023-04-08T14:58:07;100972.97;;;15.36;52.43
45323;BME280;31382;50.200;8.674;2023-04-08T15:03:09;100981.25;;;15.92;51.52
45323;BME280;31382;50.200;8.674;2023-04-08T15:08:13;100980.03;;;16.58;50.81
45323;BME280;31382;50.200;8.674;2023-04-08T15:13:15;100971.91;;;16.58;50.89
45323;BME280;31382;50.200;8.674;2023-04-08T15:18:17;100976.34;;;16.72;50.79
45323;BME280;31382;50.200;8.674;2023-04-08T15:23:18;100983.28;;;16.75;50.45
45323;BME280;31382;50.200;8.674;2023-04-08T15:28:20;100985.28;;;16.59;50.48
45323;BME280;31382;50.200;8.674;2023-04-08T15:33:21;100980.38;;;16.41;50.90
45323;BME280;31382;50.200;8.674;2023-04-08T15:38:22;100986.50;;;16.22;50.89
45323;BME280;31382;50.200;8.674;2023-04-08T15:43:24;100982.69;;;15.88;51.37
45323;BME280;31382;50.200;8.674;2023-04-08T15:48:25;100988.66;;;15.83;51.34
45323;BME280;31382;50.200;8.674;2023-04-08T15:53:26;100990.06;;;15.58;51.69
45323;BME280;31382;50.200;8.674;2023-04-08T15:58:28;100990.72;;;15.38;51.92
45323;BME280;31382;50.200;8.674;2023-04-08T16:03:30;100991.09;;;15.35;52.07
45323;BME280;31382;50.200;8.674;2023-04-08T16:08:32;100999.72;;;15.24;52.26
45323;BME280;31382;50.200;8.674;2023-04-08T16:13:34;100999.94;;;15.07;52.65
45323;BME280;31382;50.200;8.674;2023-04-08T16:18:39;101000.22;;;14.98;52.75
45323;BME280;31382;50.200;8.674;2023-04-08T16:23:41;101011.28;;;14.81;53.32
45323;BME280;31382;50.200;8.674;2023-04-08T16:28:43;101009.41;;;14.82;53.42
45323;BME280;31382;50.200;8.674;2023-04-08T16:33:44;101006.97;;;14.87;53.38
45323;BME280;31382;50.200;8.674;2023-04-08T16:38:46;101014.63;;;14.83;53.53
45323;BME280;31382;50.200;8.674;2023-04-08T16:43:47;101025.56;;;14.75;53.71
45323;BME280;31382;50.200;8.674;2023-04-08T16:48:49;101029.28;;;14.59;54.20
45323;BME280;31382;50.200;8.674;2023-04-08T16:53:50;101038.50;;;14.65;54.08
45323;BME280;31382;50.200;8.674;2023-04-08T16:58:52;101039.91;;;14.61;53.84
45323;BME280;31382;50.200;8.674;2023-04-08T17:03:53;101045.88;;;14.56;53.57
45323;BME280;31382;50.200;8.674;2023-04-08T17:08:56;101046.84;;;14.55;53.32
45323;BME280;31382;50.200;8.674;2023-04-08T17:13:57;101049.47;;;14.48;53.09
45323;BME280;31382;50.200;8.674;2023-04-08T17:18:59;101055.63;;;14.42;52.44
45323;BME280;31382;50.200;8.674;2023-04-08T17:24:00;101062.44;;;14.38;52.14
45323;BME280;31382;50.200;8.674;2023-04-08T17:29:02;101069.31;;;14.41;51.64
45323;BME280;31382;50.200;8.674;2023-04-08T17:34:03;101068.00;;;14.37;51.55
45323;BME280;31382;50.200;8.674;2023-04-08T17:39:05;101066.78;;;14.24;51.74
45323;BME280;31382;50.200;8.674;2023-04-08T17:44:06;101077.66;;;14.16;51.79
45323;BME280;31382;50.200;8.674;2023-04-08T17:49:08;101079.09;;;14.04;51.94
45323;BME280;31382;50.200;8.674;2023-04-08T17:54:12;101093.06;;;13.93;51.85
45323;BME280;31382;50.200;8.674;2023-04-08T17:59:14;101095.81;;;13.84;51.77
45323;BME280;31382;50.200;8.674;2023-04-08T18:04:15;101093.13;;;13.76;51.70
45323;BME280;31382;50.200;8.674;2023-04-08T18:09:17;101101.97;;;13.70;52.04
45323;BME280;31382;50.200;8.674;2023-04-08T18:14:19;101117.56;;;13.60;51.90
45323;BME280;31382;50.200;8.674;2023-04-08T18:19:20;101112.03;;;13.53;52.34
45323;BME280;31382;50.200;8.674;2023-04-08T18:24:22;101121.19;;;13.44;52.42
45323;BME280;31382;50.200;8.674;2023-04-08T18:29:23;101135.41;;;13.38;52.44
45323;BME280;31382;50.200;8.674;2023-04-08T18:34:25;101133.41;;;13.23;52.80
45323;BME280;31382;50.200;8.674;2023-04-08T18:39:26;101145.72;;;13.18;52.65
45323;BME280;31382;50.200;8.674;2023-04-08T18:44:28;101147.63;;;13.01;53.46
45323;BME280;31382;50.200;8.674;2023-04-08T18:49:29;101150.19;;;12.86;53.41
45323;BME280;31382;50.200;8.674;2023-04-08T18:54:34;101158.13;;;12.71;53.53
45323;BME280;31382;50.200;8.674;2023-04-08T18:59:35;101155.59;;;12.69;53.46
45323;BME280;31382;50.200;8.674;2023-04-08T19:04:37;101153.41;;;12.65;53.66
45323;BME280;31382;50.200;8.674;2023-04-08T19:09:38;101164.38;;;12.55;53.45
45323;BME280;31382;50.200;8.674;2023-04-08T19:14:40;101161.31;;;12.42;54.25
45323;BME280;31382;50.200;8.674;2023-04-08T19:19:42;101166.56;;;12.43;53.87
45323;BME280;31382;50.200;8.674;2023-04-08T19:24:43;101170.59;;;12.31;54.12
45323;BME280;31382;50.200;8.674;2023-04-08T19:29:45;101171.13;;;12.26;53.99
45323;BME280;31382;50.200;8.674;2023-04-08T19:34:46;101173.97;;;12.25;53.81
45323;BME280;31382;50.200;8.674;2023-04-08T19:39:48;101180.03;;;12.19;53.85
45323;BME280;31382;50.200;8.674;2023-04-08T19:44:49;101171.59;;;12.14;54.12
45323;BME280;31382;50.200;8.674;2023-04-08T19:49:51;101180.66;;;12.04;54.46
45323;BME280;31382;50.200;8.674;2023-04-08T19:54:53;101181.16;;;12.00;54.23
45323;BME280;31382;50.200;8.674;2023-04-08T19:59:54;101188.66;;;11.88;54.78
45323;BME280;31382;50.200;8.674;2023-04-08T20:04:55;101198.09;;;11.84;54.51
45323;BME280;31382;50.200;8.674;2023-04-08T20:09:57;101202.28;;;11.78;54.53
45323;BME280;31382;50.200;8.674;2023-04-08T20:14:59;101202.94;;;11.72;54.24
45323;BME280;31382;50.200;8.674;2023-04-08T20:20:01;101199.56;;;11.70;54.56
45323;BME280;31382;50.200;8.674;2023-04-08T20:25:03;101203.22;;;11.61;54.49
45323;BME280;31382;50.200;8.674;2023-04-08T20:30:06;101202.50;;;11.50;54.96
45323;BME280;31382;50.200;8.674;2023-04-08T20:35:08;101202.78;;;11.39;55.20
45323;BME280;31382;50.200;8.674;2023-04-08T20:40:09;101207.81;;;11.34;55.30
45323;BME280;31382;50.200;8.674;2023-04-08T20:45:11;101198.16;;;11.23;55.43
45323;BME280;31382;50.200;8.674;2023-04-08T20:50:12;101208.03;;;11.15;55.41
45323;BME280;31382;50.200;8.674;2023-04-08T20:55:14;101209.84;;;11.06;55.42
45323;BME280;31382;50.200;8.674;2023-04-08T21:00:15;101208.06;;;10.97;55.83
45323;BME280;31382;50.200;8.674;2023-04-08T21:05:17;101211.25;;;10.92;55.58
45323;BME280;31382;50.200;8.674;2023-04-08T21:10:18;101208.81;;;10.81;55.95
45323;BME280;31382;50.200;8.674;2023-04-08T21:15:20;101204.88;;;10.75;56.01
45323;BME280;31382;50.200;8.674;2023-04-08T21:20:22;101214.13;;;10.73;55.93
45323;BME280;31382;50.200;8.674;2023-04-08T21:25:24;101210.25;;;10.75;56.11
45323;BME280;31382;50.200;8.674;2023-04-08T21:30:26;101215.66;;;10.75;56.16
45323;BME280;31382;50.200;8.674;2023-04-08T21:35:28;101208.41;;;10.76;56.01
45323;BME280;31382;50.200;8.674;2023-04-08T21:40:29;101216.47;;;10.76;56.12
45323;BME280;31382;50.200;8.674;2023-04-08T21:45:30;101217.03;;;10.79;56.28
45323;BME280;31382;50.200;8.674;2023-04-08T21:50:32;101216.25;;;10.87;56.37
45323;BME280;31382;50.200;8.674;2023-04-08T21:55:33;101213.56;;;10.87;56.07
45323;BME280;31382;50.200;8.674;2023-04-08T22:00:34;101214.88;;;10.83;56.31
45323;BME280;31382;50.200;8.674;2023-04-08T22:05:36;101210.47;;;10.82;56.34
45323;BME280;31382;50.200;8.674;2023-04-08T22:10:37;101212.81;;;10.77;56.21
45323;BME280;31382;50.200;8.674;2023-04-08T22:15:39;101210.25;;;10.75;56.42
45323;BME280;31382;50.200;8.674;2023-04-08T22:20:40;101209.44;;;10.75;56.46
45323;BME280;31382;50.200;8.674;2023-04-08T22:25:41;101205.19;;;10.72;56.59
45323;BME280;31382;50.200;8.674;2023-04-08T22:30:43;101209.59;;;10.73;56.33
45323;BME280;31382;50.200;8.674;2023-04-08T22:35:44;101197.13;;;10.72;56.33
45323;BME280;31382;50.200;8.674;2023-04-08T22:40:46;101196.59;;;10.68;56.58
45323;BME280;31382;50.200;8.674;2023-04-08T22:45:47;101201.38;;;10.75;56.15
45323;BME280;31382;50.200;8.674;2023-04-08T22:50:49;101198.50;;;10.76;56.12
45323;BME280;31382;50.200;8.674;2023-04-08T22:55:50;101200.25;;;10.85;56.09
45323;BME280;31382;50.200;8.674;2023-04-08T23:00:51;101201.56;;;10.81;56.00
45323;BME280;31382;50.200;8.674;2023-04-08T23:05:53;101201.28;;;10.84;56.50
45323;BME280;31382;50.200;8.674;2023-04-08T23:10:54;101206.47;;;10.86;56.24
45323;BME280;31382;50.200;8.674;2023-04-08T23:15:55;101206.81;;;10.83;56.40
45323;BME280;31382;50.200;8.674;2023-04-08T23:20:57;101202.94;;;10.85;56.36
45323;BME280;31382;50.200;8.674;2023-04-08T23:25:58;101195.91;;;10.84;56.49
45323;BME280;31382;50.200;8.674;2023-04-08T23:31:02;101203.72;;;10.78;56.53
45323;BME280;31382;50.200;8.674;2023-04-08T23:36:07;101209.72;;;10.71;56.75
45323;BME280;31382;50.200;8.674;2023-04-08T23:41:09;101199.59;;;10.65;56.82
45323;BME280;31382;50.200;8.674;2023-04-08T23:46:11;101204.75;;;10.59;56.99
45323;BME280;31382;50.200;8.674;2023-04-08T23:51:12;101204.22;;;10.55;56.68
45323;BME280;31382;50.200;8.674;2023-04-08T23:56:13;101212.28;;;10.55;57.05
